KMFI/MFI METAR and TAF weather

Enter ICAO airport designator
Station Type Date Time Source
KMFI METAR 2022/08/16 19:54 UTC NOAA

KMFI 161954Z AUTO VRB06KT 10SM SCT050 26/14 A3017 RMK AO2 SLP214 T02560144


Station Type Date Time Source
KMFI Decoded METAR 2022/08/16 19:54 UTC NOAA

MARSHFIELD MUNICIPAL AIRPORT, WI, United States (KMFI) 44-38N 90-11W 379M
Aug 16, 2022 - 03:54 PM EDT / 2022.08.16 1954 UTC
Wind: Variable at 7 MPH (6 KT):0
Visibility: 10 mile(s):0
Sky conditions: partly cloudy
Temperature: 78.1 F (25.6 C)
Dew Point: 57.9 F (14.4 C)
Relative Humidity: 49%
Pressure (altimeter): 30.17 in. Hg (1021 hPa)
ob: KMFI 161954Z AUTO VRB06KT 10SM SCT050 26/14 A3017 RMK AO2 SLP214 T02560144
cycle: 20

Station Type Date Time Source
KMFI TAF UTC NOAA

Error!

Example: see airport list